Time;durP1;ratioP1;P1;durP2;ratioP2;P2;SDS_P1;SDS_P2;PMS_P1;PMS_P2;Temp;Humidity;BMP_temperature;BMP_pressure;BME280_temperature;BME280_humidity;BME280_pressure;Samples;Min_cycle;Max_cycle;Signal;HPM_P1;HPM_P2
2021/08/23 00:01:53;;;;;;;;;8.75;6.75;;;;;;;;5062696;28;8779;-81
2021/08/23 00:04:21;;;;;;;;;7.00;6.25;;;;;;;;5061088;28;8890;-81
2021/08/23 00:06:48;;;;;;;;;5.00;5.00;;;;;;;;5065015;28;9582;-80
2021/08/23 00:09:19;;;;;;;;;6.00;6.00;;;;;;;;5059726;28;8893;-83
2021/08/23 00:11:47;;;;;;;;;6.50;6.50;;;;;;;;5060498;28;8863;-84
2021/08/23 00:14:14;;;;;;;;;6.00;6.00;;;;;;;;5065653;28;8864;-79
2021/08/23 00:16:41;;;;;;;;;7.75;6.00;;;;;;;;5055943;28;8882;-83
2021/08/23 00:19:08;;;;;;;;;5.50;5.50;;;;;;;;5062617;28;8857;-85
2021/08/23 00:21:42;;;;;;;;;5.75;5.00;;;;;;;;5066682;28;8937;-83
2021/08/23 00:24:21;;;;;;;;;5.75;5.75;;;;;;;;5069686;28;8880;-80
2021/08/23 00:26:50;;;;;;;;;7.25;7.00;;;;;;;;5063576;28;9016;-79
2021/08/23 00:29:17;;;;;;;;;5.00;5.00;;;;;;;;5057940;28;8879;-85
2021/08/23 00:31:45;;;;;;;;;7.75;7.75;;;;;;;;5057227;28;8854;-80
2021/08/23 00:34:13;;;;;;;;;4.00;4.00;;;;;;;;5078223;28;8988;-78
2021/08/23 00:36:41;;;;;;;;;5.00;5.00;;;;;;;;5052125;28;8884;-78
2021/08/23 00:39:09;;;;;;;;;5.50;5.00;;;;;;;;5064142;28;8853;-80
2021/08/23 00:41:37;;;;;;;;;6.00;5.25;;;;;;;;5059161;28;10060;-80
2021/08/23 00:44:08;;;;;;;;;5.25;5.25;;;;;;;;5064511;28;8860;-81
2021/08/23 00:46:36;;;;;;;;;6.50;6.50;;;;;;;;5066398;28;9332;-85
2021/08/23 00:49:05;;;;;;;;;3.00;3.00;;;;;;;;5059026;28;8994;-84
2021/08/23 00:51:32;;;;;;;;;6.50;5.75;;;;;;;;5047029;28;9013;-83
2021/08/23 00:54:00;;;;;;;;;8.00;4.75;;;;;;;;5047245;28;8885;-84
2021/08/23 00:56:27;;;;;;;;;7.00;7.00;;;;;;;;5081961;28;8873;-79
2021/08/23 00:58:54;;;;;;;;;5.00;5.00;;;;;;;;5060040;28;8999;-83
2021/08/23 01:01:26;;;;;;;;;5.00;5.00;;;;;;;;5064125;28;8824;-78
2021/08/23 01:03:58;;;;;;;;;8.25;6.00;;;;;;;;5060017;28;8875;-82
2021/08/23 01:06:29;;;;;;;;;5.00;5.00;;;;;;;;5064284;28;8910;-81
2021/08/23 01:09:01;;;;;;;;;7.00;5.75;;;;;;;;5060972;28;8872;-83
2021/08/23 01:11:28;;;;;;;;;6.25;5.00;;;;;;;;5064192;28;8876;-78
2021/08/23 01:13:56;;;;;;;;;6.50;6.50;;;;;;;;5059978;28;8860;-79
2021/08/23 01:16:25;;;;;;;;;5.75;5.75;;;;;;;;5057139;28;8871;-80
2021/08/23 01:18:52;;;;;;;;;6.75;6.75;;;;;;;;5048621;28;8937;-82
2021/08/23 01:21:23;;;;;;;;;5.25;5.25;;;;;;;;5048612;28;8866;-82
2021/08/23 01:23:51;;;;;;;;;4.25;4.25;;;;;;;;5051808;28;8857;-81
2021/08/23 01:26:23;;;;;;;;;6.50;6.50;;;;;;;;5061471;28;8888;-83
2021/08/23 01:28:57;;;;;;;;;8.50;7.00;;;;;;;;5050174;28;8843;-78
2021/08/23 01:31:33;;;;;;;;;5.25;5.25;;;;;;;;5066014;28;8842;-85
2021/08/23 01:34:02;;;;;;;;;7.00;5.25;;;;;;;;5055005;28;8887;-78
2021/08/23 01:36:30;;;;;;;;;4.50;4.50;;;;;;;;5075960;28;8880;-76
2021/08/23 01:38:58;;;;;;;;;5.25;5.25;;;;;;;;5061181;28;8853;-85
2021/08/23 01:41:25;;;;;;;;;8.50;6.00;;;;;;;;5073109;28;9096;-82
2021/08/23 01:43:53;;;;;;;;;5.00;5.00;;;;;;;;5060914;28;8864;-76
2021/08/23 01:46:20;;;;;;;;;6.00;5.75;;;;;;;;5068584;28;8865;-79
2021/08/23 01:48:48;;;;;;;;;4.00;4.00;;;;;;;;5048264;28;8866;-82
2021/08/23 01:51:17;;;;;;;;;6.00;6.00;;;;;;;;5065505;28;8889;-85
2021/08/23 01:53:44;;;;;;;;;4.75;4.75;;;;;;;;5054966;28;8852;-83
2021/08/23 01:56:11;;;;;;;;;6.00;6.00;;;;;;;;5055609;28;8852;-79
2021/08/23 01:58:38;;;;;;;;;6.00;2.75;;;;;;;;5059503;28;8886;-85
2021/08/23 02:01:06;;;;;;;;;8.00;7.50;;;;;;;;5074090;28;8843;-81
2021/08/23 02:03:33;;;;;;;;;4.75;4.75;;;;;;;;5078014;28;8866;-79
2021/08/23 02:06:00;;;;;;;;;5.50;5.50;;;;;;;;5064663;28;8871;-82
2021/08/23 02:08:29;;;;;;;;;6.00;6.00;;;;;;;;5058213;28;8875;-83
2021/08/23 02:10:56;;;;;;;;;6.00;6.00;;;;;;;;5051152;28;8878;-83
2021/08/23 02:13:23;;;;;;;;;8.00;6.25;;;;;;;;5063515;28;8897;-86
2021/08/23 02:15:50;;;;;;;;;7.50;6.00;;;;;;;;5056019;28;8870;-84
2021/08/23 02:18:18;;;;;;;;;8.00;6.50;;;;;;;;5068884;28;8897;-80
2021/08/23 02:20:45;;;;;;;;;6.00;6.00;;;;;;;;5065065;28;9001;-82
2021/08/23 02:23:12;;;;;;;;;6.00;6.00;;;;;;;;5078145;28;9687;-85
2021/08/23 02:25:41;;;;;;;;;8.75;8.50;;;;;;;;5062760;28;8878;-85
2021/08/23 02:28:09;;;;;;;;;8.25;8.25;;;;;;;;5090506;27;8865;-86
2021/08/23 02:30:37;;;;;;;;;7.00;7.00;;;;;;;;5058922;28;8797;-84
2021/08/23 02:33:04;;;;;;;;;10.25;10.25;;;;;;;;5073463;28;8895;-83
2021/08/23 02:35:32;;;;;;;;;5.25;5.25;;;;;;;;5073124;28;8874;-82
2021/08/23 02:38:01;;;;;;;;;7.75;7.75;;;;;;;;5101548;27;8828;-84
2021/08/23 02:40:28;;;;;;;;;10.00;8.75;;;;;;;;5061575;28;9673;-82
2021/08/23 02:42:57;;;;;;;;;7.00;6.75;;;;;;;;5074598;28;8983;-82
2021/08/23 02:45:24;;;;;;;;;11.00;8.00;;;;;;;;5051208;28;8920;-85
2021/08/23 02:47:52;;;;;;;;;7.25;7.25;;;;;;;;5065424;28;8953;-81
2021/08/23 02:50:19;;;;;;;;;8.00;8.00;;;;;;;;5067920;28;8857;-82
2021/08/23 02:52:47;;;;;;;;;7.25;7.25;;;;;;;;5060487;28;8899;-78
2021/08/23 02:55:14;;;;;;;;;5.25;5.00;;;;;;;;5065448;28;8862;-81
2021/08/23 02:57:41;;;;;;;;;10.00;8.25;;;;;;;;5064533;28;8890;-82
2021/08/23 03:00:11;;;;;;;;;8.00;7.75;;;;;;;;5049842;28;8859;-82
2021/08/23 03:02:39;;;;;;;;;9.00;8.25;;;;;;;;5061243;28;8903;-84
2021/08/23 03:05:07;;;;;;;;;9.25;8.75;;;;;;;;5064531;28;8882;-85
2021/08/23 03:07:34;;;;;;;;;8.75;8.25;;;;;;;;5060193;28;8870;-84
2021/08/23 03:10:01;;;;;;;;;10.50;10.50;;;;;;;;5054602;28;9748;-83
2021/08/23 03:12:29;;;;;;;;;10.25;8.75;;;;;;;;5057674;28;8878;-83
2021/08/23 03:14:56;;;;;;;;;8.00;8.00;;;;;;;;5068721;28;8895;-79
2021/08/23 03:17:25;;;;;;;;;10.25;9.00;;;;;;;;5059663;28;8853;-85
2021/08/23 03:19:53;;;;;;;;;11.50;11.00;;;;;;;;5061478;28;8836;-80
2021/08/23 03:22:20;;;;;;;;;10.75;10.00;;;;;;;;5050701;28;8852;-80
2021/08/23 03:24:47;;;;;;;;;11.00;9.25;;;;;;;;5053148;28;8893;-82
2021/08/23 03:27:14;;;;;;;;;9.50;9.50;;;;;;;;5045989;28;8897;-84
2021/08/23 03:29:42;;;;;;;;;8.75;8.75;;;;;;;;5049075;28;8859;-78
2021/08/23 03:32:10;;;;;;;;;12.00;10.25;;;;;;;;5082163;28;8936;-82
2021/08/23 03:34:38;;;;;;;;;12.50;10.75;;;;;;;;5097773;27;8850;-79
2021/08/23 03:37:06;;;;;;;;;10.75;9.50;;;;;;;;5068766;28;8899;-83
2021/08/23 03:39:33;;;;;;;;;11.00;11.00;;;;;;;;5069464;28;8966;-78
2021/08/23 03:42:01;;;;;;;;;12.25;11.00;;;;;;;;5063555;28;9698;-80
2021/08/23 03:44:28;;;;;;;;;13.75;12.50;;;;;;;;5064142;28;8995;-81
2021/08/23 03:46:55;;;;;;;;;14.00;13.25;;;;;;;;5059718;28;8858;-85
2021/08/23 03:49:23;;;;;;;;;10.00;10.00;;;;;;;;5064798;28;8878;-83
2021/08/23 03:51:51;;;;;;;;;11.50;9.75;;;;;;;;5078497;28;8856;-82
2021/08/23 03:54:19;;;;;;;;;14.50;14.50;;;;;;;;5063795;28;8921;-83
2021/08/23 03:56:46;;;;;;;;;11.50;11.50;;;;;;;;5057131;28;8832;-77
2021/08/23 03:59:13;;;;;;;;;13.75;11.25;;;;;;;;5068586;28;8848;-78
2021/08/23 04:01:41;;;;;;;;;10.50;8.75;;;;;;;;5069305;28;8904;-86
2021/08/23 04:04:08;;;;;;;;;11.50;11.50;;;;;;;;5073166;28;8856;-85
2021/08/23 04:06:35;;;;;;;;;15.75;10.00;;;;;;;;5061735;28;8852;-86
2021/08/23 04:09:04;;;;;;;;;10.50;10.50;;;;;;;;5059898;28;8884;-79
2021/08/23 04:11:31;;;;;;;;;15.50;14.00;;;;;;;;5053394;28;8995;-81
2021/08/23 04:13:58;;;;;;;;;14.25;12.75;;;;;;;;5059684;28;8867;-82
2021/08/23 04:16:25;;;;;;;;;12.75;10.00;;;;;;;;5064610;28;8864;-86
2021/08/23 04:18:53;;;;;;;;;14.50;13.00;;;;;;;;5062926;28;8918;-85
2021/08/23 04:21:20;;;;;;;;;13.00;12.00;;;;;;;;5052971;28;8968;-86
2021/08/23 04:23:47;;;;;;;;;12.50;12.50;;;;;;;;5067357;28;8876;-86
2021/08/23 04:26:16;;;;;;;;;14.00;14.00;;;;;;;;5063892;28;9000;-76
2021/08/23 04:28:43;;;;;;;;;11.50;11.00;;;;;;;;5064981;28;8871;-87
2021/08/23 04:31:11;;;;;;;;;18.50;17.00;;;;;;;;5073194;28;9559;-78
2021/08/23 04:33:38;;;;;;;;;17.00;17.00;;;;;;;;5068717;28;8884;-85
2021/08/23 04:36:05;;;;;;;;;24.50;18.75;;;;;;;;5052875;28;8889;-82
2021/08/23 04:38:33;;;;;;;;;20.75;19.50;;;;;;;;5066304;28;8983;-83
2021/08/23 04:41:00;;;;;;;;;17.75;16.50;;;;;;;;5066132;28;8852;-84
2021/08/23 04:43:29;;;;;;;;;19.00;17.25;;;;;;;;5065955;28;8894;-86
2021/08/23 04:45:56;;;;;;;;;16.25;16.25;;;;;;;;5064126;28;8864;-88
2021/08/23 04:48:23;;;;;;;;;17.75;17.75;;;;;;;;5077596;28;8868;-85
2021/08/23 04:50:50;;;;;;;;;15.75;14.25;;;;;;;;5080014;28;9029;-85
2021/08/23 04:53:18;;;;;;;;;18.00;16.25;;;;;;;;5056089;28;8851;-83
2021/08/23 04:55:45;;;;;;;;;23.75;18.25;;;;;;;;5076007;28;8880;-84
2021/08/23 04:58:12;;;;;;;;;23.50;19.25;;;;;;;;5055997;28;9009;-84
2021/08/23 05:00:41;;;;;;;;;17.75;16.50;;;;;;;;5063209;28;8826;-83
2021/08/23 05:03:09;;;;;;;;;15.75;14.25;;;;;;;;5081370;28;8877;-86
2021/08/23 05:05:36;;;;;;;;;19.50;16.00;;;;;;;;5057215;28;8837;-87
2021/08/23 05:08:04;;;;;;;;;18.00;17.50;;;;;;;;5065121;28;8882;-78
2021/08/23 05:10:31;;;;;;;;;16.25;15.50;;;;;;;;5065735;28;8864;-77
2021/08/23 05:12:58;;;;;;;;;20.25;17.75;;;;;;;;5060137;28;8906;-77
2021/08/23 05:15:26;;;;;;;;;18.25;15.25;;;;;;;;5055829;28;8867;-76
2021/08/23 05:17:54;;;;;;;;;21.00;15.50;;;;;;;;5057092;28;8865;-75
2021/08/23 05:20:21;;;;;;;;;24.50;21.75;;;;;;;;5065007;28;8892;-76
2021/08/23 05:22:49;;;;;;;;;22.25;21.75;;;;;;;;5063610;28;8892;-75
2021/08/23 05:25:16;;;;;;;;;23.75;22.00;;;;;;;;5052068;28;8881;-76
2021/08/23 05:27:43;;;;;;;;;25.00;23.75;;;;;;;;5061702;28;9683;-76
2021/08/23 05:30:11;;;;;;;;;19.50;17.75;;;;;;;;5063607;28;8882;-76
2021/08/23 05:32:38;;;;;;;;;21.75;21.75;;;;;;;;5068465;28;8873;-76
2021/08/23 05:35:08;;;;;;;;;24.50;22.00;;;;;;;;5074643;28;8868;-77
2021/08/23 05:37:36;;;;;;;;;22.25;20.75;;;;;;;;5064319;28;8878;-77
2021/08/23 05:40:04;;;;;;;;;19.00;19.00;;;;;;;;5064112;28;8880;-76
2021/08/23 05:42:31;;;;;;;;;19.25;18.00;;;;;;;;5064844;28;8866;-77
2021/08/23 05:44:58;;;;;;;;;16.25;16.25;;;;;;;;5064729;28;9645;-76
2021/08/23 05:47:25;;;;;;;;;18.25;18.25;;;;;;;;5064200;28;8922;-76
2021/08/23 05:49:52;;;;;;;;;18.00;18.00;;;;;;;;5064870;28;8874;-76
2021/08/23 05:52:21;;;;;;;;;17.50;17.50;;;;;;;;5062554;28;8904;-75
2021/08/23 05:54:49;;;;;;;;;19.50;19.50;;;;;;;;5057375;28;8890;-76
2021/08/23 05:57:16;;;;;;;;;17.50;17.50;;;;;;;;5064218;28;8976;-76
2021/08/23 05:59:44;;;;;;;;;20.00;18.50;;;;;;;;5064635;28;8880;-76
2021/08/23 06:02:11;;;;;;;;;19.25;17.00;;;;;;;;5063674;28;8829;-77
2021/08/23 06:04:38;;;;;;;;;16.00;14.75;;;;;;;;5064083;28;8908;-76
2021/08/23 06:07:07;;;;;;;;;20.00;17.75;;;;;;;;5064764;28;8876;-76
2021/08/23 06:09:37;;;;;;;;;17.25;17.00;;;;;;;;5062904;28;9544;-76
2021/08/23 06:12:04;;;;;;;;;15.50;15.50;;;;;;;;5064677;28;8856;-76
2021/08/23 06:14:32;;;;;;;;;18.50;18.00;;;;;;;;5063394;28;8947;-76
2021/08/23 06:16:59;;;;;;;;;17.50;17.50;;;;;;;;5064488;28;8929;-76
2021/08/23 06:19:26;;;;;;;;;16.75;14.75;;;;;;;;5063911;28;9637;-76
2021/08/23 06:21:54;;;;;;;;;16.75;16.75;;;;;;;;5060615;28;8882;-76
2021/08/23 06:24:22;;;;;;;;;18.00;17.00;;;;;;;;5054812;28;8845;-76
2021/08/23 06:26:51;;;;;;;;;16.50;16.50;;;;;;;;5059737;28;8882;-75
2021/08/23 06:29:18;;;;;;;;;18.00;16.00;;;;;;;;5055352;28;8932;-76
2021/08/23 06:31:46;;;;;;;;;18.50;18.50;;;;;;;;5049444;28;8809;-76
2021/08/23 06:34:13;;;;;;;;;20.00;19.00;;;;;;;;5064011;28;8892;-76
2021/08/23 06:36:42;;;;;;;;;17.00;16.00;;;;;;;;5063174;28;8876;-77
2021/08/23 06:39:09;;;;;;;;;20.50;18.25;;;;;;;;5056315;28;9018;-76
2021/08/23 06:41:36;;;;;;;;;17.75;17.50;;;;;;;;5063956;28;8864;-76
2021/08/23 06:44:06;;;;;;;;;18.75;18.25;;;;;;;;5062094;28;8902;-76
2021/08/23 06:46:33;;;;;;;;;15.75;15.75;;;;;;;;5063761;28;8864;-77
2021/08/23 06:49:01;;;;;;;;;19.75;17.25;;;;;;;;5062994;28;9002;-77
2021/08/23 06:51:28;;;;;;;;;18.50;16.50;;;;;;;;5064336;28;8864;-77
2021/08/23 06:53:55;;;;;;;;;18.50;16.25;;;;;;;;5063324;28;8998;-77
2021/08/23 06:56:23;;;;;;;;;19.75;16.00;;;;;;;;5064150;28;9000;-77
2021/08/23 06:58:50;;;;;;;;;19.00;19.00;;;;;;;;5063816;28;8864;-77
2021/08/23 07:01:18;;;;;;;;;20.00;19.75;;;;;;;;5054498;28;9727;-77
2021/08/23 07:03:48;;;;;;;;;16.50;15.50;;;;;;;;5061320;28;8974;-77
2021/08/23 07:06:15;;;;;;;;;22.25;18.75;;;;;;;;5067048;28;8880;-77
2021/08/23 07:08:42;;;;;;;;;17.00;15.50;;;;;;;;5068033;28;8959;-77
2021/08/23 07:11:11;;;;;;;;;19.00;16.75;;;;;;;;5067107;28;8872;-76
2021/08/23 07:13:38;;;;;;;;;15.25;12.75;;;;;;;;5067834;28;8860;-77
2021/08/23 07:16:06;;;;;;;;;14.75;14.25;;;;;;;;5067590;28;8994;-77
2021/08/23 07:18:34;;;;;;;;;18.50;18.00;;;;;;;;5065197;28;8882;-77
2021/08/23 07:21:02;;;;;;;;;23.00;17.00;;;;;;;;5066348;28;8915;-76
2021/08/23 07:23:29;;;;;;;;;16.75;16.25;;;;;;;;5066522;28;8894;-77
2021/08/23 07:25:57;;;;;;;;;16.25;13.00;;;;;;;;5068095;28;8936;-77
2021/08/23 07:28:24;;;;;;;;;19.25;15.75;;;;;;;;5066725;28;8903;-77
2021/08/23 07:30:51;;;;;;;;;16.50;16.50;;;;;;;;5065540;28;8769;-77
2021/08/23 07:33:19;;;;;;;;;17.75;15.50;;;;;;;;5067045;28;8864;-78
2021/08/23 07:35:47;;;;;;;;;13.25;13.25;;;;;;;;5066279;28;9642;-77
2021/08/23 07:38:15;;;;;;;;;13.75;13.00;;;;;;;;5067110;28;8870;-77
2021/08/23 07:40:42;;;;;;;;;18.00;16.20;;;;;;;;5064281;28;9548;-78
2021/08/23 07:43:09;;;;;;;;;14.40;12.20;;;;;;;;5067723;28;8949;-78
2021/08/23 07:45:38;;;;;;;;;15.60;15.60;;;;;;;;5066053;28;9642;-77
2021/08/23 07:48:06;;;;;;;;;16.25;13.75;;;;;;;;5067210;28;8901;-78
2021/08/23 07:50:34;;;;;;;;;14.80;13.00;;;;;;;;5066642;28;8856;-78
2021/08/23 07:53:03;;;;;;;;;15.20;15.00;;;;;;;;5065859;28;8860;-78
2021/08/23 07:55:31;;;;;;;;;16.40;13.20;;;;;;;;5067191;28;8987;-79
2021/08/23 07:57:59;;;;;;;;;16.80;15.20;;;;;;;;5066322;28;8880;-78
2021/08/23 08:00:26;;;;;;;;;16.60;16.60;;;;;;;;5066693;28;8788;-77
2021/08/23 08:02:53;;;;;;;;;17.40;17.40;;;;;;;;5066001;28;9759;-77
2021/08/23 08:05:21;;;;;;;;;15.40;13.80;;;;;;;;5067086;28;8884;-77
2021/08/23 08:07:48;;;;;;;;;20.80;15.40;;;;;;;;5065835;28;8860;-77
2021/08/23 08:10:17;;;;;;;;;15.80;14.60;;;;;;;;5065746;28;8918;-77
2021/08/23 08:12:44;;;;;;;;;15.80;14.40;;;;;;;;5067328;28;8852;-77
2021/08/23 08:15:12;;;;;;;;;11.80;11.80;;;;;;;;5065065;28;8884;-76
2021/08/23 08:17:40;;;;;;;;;17.00;13.40;;;;;;;;5067251;28;8899;-77
2021/08/23 08:20:10;;;;;;;;;11.40;9.60;;;;;;;;5065669;28;8929;-76
2021/08/23 08:22:37;;;;;;;;;16.80;14.80;;;;;;;;5066779;28;8914;-77
2021/08/23 08:25:06;;;;;;;;;18.60;13.20;;;;;;;;5065586;28;8886;-77
2021/08/23 08:27:35;;;;;;;;;9.20;9.20;;;;;;;;5065986;28;8883;-76
2021/08/23 08:30:03;;;;;;;;;13.00;11.40;;;;;;;;5065767;28;8876;-77
2021/08/23 08:32:30;;;;;;;;;16.20;11.80;;;;;;;;5065517;28;9051;-77
2021/08/23 08:34:57;;;;;;;;;13.00;13.00;;;;;;;;5066328;28;8892;-77
2021/08/23 08:37:25;;;;;;;;;13.00;13.00;;;;;;;;5064871;28;9638;-77
2021/08/23 08:39:52;;;;;;;;;10.20;10.20;;;;;;;;5066337;28;8904;-77
2021/08/23 08:42:20;;;;;;;;;10.20;10.20;;;;;;;;5064856;28;9644;-77
2021/08/23 08:44:49;;;;;;;;;14.80;12.00;;;;;;;;5063871;28;8884;-78
2021/08/23 08:47:18;;;;;;;;;9.80;9.80;;;;;;;;5066131;28;8856;-77
2021/08/23 08:49:46;;;;;;;;;10.20;8.60;;;;;;;;5064895;28;8883;-77
2021/08/23 08:52:14;;;;;;;;;11.80;10.60;;;;;;;;5066449;28;8844;-77
2021/08/23 08:54:44;;;;;;;;;7.80;7.80;;;;;;;;5065183;28;8871;-77
2021/08/23 08:57:12;;;;;;;;;9.20;8.20;;;;;;;;5080178;28;8927;-77
2021/08/23 08:59:39;;;;;;;;;9.40;9.40;;;;;;;;5083518;28;8871;-77
2021/08/23 09:02:08;;;;;;;;;8.60;8.60;;;;;;;;5065074;28;8837;-78
2021/08/23 09:04:36;;;;;;;;;13.40;12.80;;;;;;;;5065746;28;8870;-77
2021/08/23 09:07:05;;;;;;;;;8.60;8.60;;;;;;;;5064633;28;8884;-77
2021/08/23 09:09:32;;;;;;;;;11.80;10.40;;;;;;;;5066036;28;8872;-77
2021/08/23 09:12:01;;;;;;;;;11.80;8.80;;;;;;;;5064960;28;8868;-77
2021/08/23 09:14:28;;;;;;;;;13.20;11.40;;;;;;;;5065991;28;8894;-77
2021/08/23 09:17:03;;;;;;;;;11.00;9.40;;;;;;;;5063617;28;8890;-78
2021/08/23 09:19:34;;;;;;;;;9.00;9.00;;;;;;;;5065359;28;8925;-77
2021/08/23 09:22:03;;;;;;;;;9.40;9.40;;;;;;;;5065551;28;8860;-78
2021/08/23 09:24:32;;;;;;;;;8.80;8.60;;;;;;;;5064137;28;8872;-78
2021/08/23 09:27:08;;;;;;;;;10.20;8.40;;;;;;;;5065690;28;8974;-78
2021/08/23 09:30:00;;;;;;;;;8.00;8.00;;;;;;;;5051064;28;8866;-79
2021/08/23 09:32:29;;;;;;;;;4.00;3.00;;;;;;;;5052447;28;8816;-79
2021/08/23 09:34:58;;;;;;;;;9.20;9.20;;;;;;;;5064089;28;8852;-78
2021/08/23 09:37:29;;;;;;;;;8.80;8.60;;;;;;;;5064587;28;8860;-77
2021/08/23 09:39:56;;;;;;;;;6.20;6.20;;;;;;;;5064998;28;8867;-78
2021/08/23 09:42:26;;;;;;;;;8.20;8.20;;;;;;;;5063876;28;9654;-79
2021/08/23 09:44:54;;;;;;;;;12.20;12.20;;;;;;;;5064999;28;8872;-78
2021/08/23 09:47:28;;;;;;;;;10.20;10.20;;;;;;;;5064588;28;8864;-78
2021/08/23 09:49:57;;;;;;;;;11.60;10.80;;;;;;;;5064760;28;8892;-78
2021/08/23 09:52:31;;;;;;;;;10.20;10.20;;;;;;;;5063701;28;8871;-77
2021/08/23 09:55:04;;;;;;;;;6.00;6.00;;;;;;;;5063785;28;8953;-77
2021/08/23 09:57:33;;;;;;;;;8.60;8.60;;;;;;;;5065344;28;8969;-78
2021/08/23 10:00:01;;;;;;;;;8.20;8.20;;;;;;;;5063933;28;8867;-78
2021/08/23 10:02:29;;;;;;;;;7.00;7.00;;;;;;;;5064480;28;8829;-78
2021/08/23 10:04:58;;;;;;;;;10.40;9.00;;;;;;;;5064269;28;8848;-78
2021/08/23 10:07:28;;;;;;;;;0.20;0.20;;;;;;;;5063177;28;8848;-78
2021/08/23 10:09:57;;;;;;;;;9.00;9.00;;;;;;;;5052901;28;8869;-79
2021/08/23 10:12:24;;;;;;;;;10.00;8.40;;;;;;;;5062091;28;8879;-77
2021/08/23 10:14:52;;;;;;;;;13.80;13.80;;;;;;;;5063472;28;8857;-78
2021/08/23 10:17:20;;;;;;;;;10.80;10.80;;;;;;;;5069364;28;8866;-78
2021/08/23 10:19:49;;;;;;;;;11.40;11.00;;;;;;;;5071366;28;8990;-79
2021/08/23 10:22:18;;;;;;;;;9.00;9.00;;;;;;;;5063738;28;8890;-77
2021/08/23 10:24:47;;;;;;;;;12.20;11.00;;;;;;;;5062035;28;8844;-77
2021/08/23 10:27:23;;;;;;;;;13.40;12.20;;;;;;;;5052005;28;8868;-78
2021/08/23 10:29:51;;;;;;;;;7.40;7.40;;;;;;;;5063263;28;9409;-78
2021/08/23 10:32:19;;;;;;;;;12.00;12.00;;;;;;;;5063927;28;8951;-79
2021/08/23 10:34:46;;;;;;;;;8.60;8.60;;;;;;;;5062917;28;8884;-79
2021/08/23 10:37:19;;;;;;;;;12.60;11.00;;;;;;;;5063990;28;8890;-78
2021/08/23 10:39:46;;;;;;;;;9.40;9.40;;;;;;;;5063759;28;9693;-79
2021/08/23 10:42:16;;;;;;;;;10.20;9.00;;;;;;;;5054141;28;8879;-78
2021/08/23 10:44:44;;;;;;;;;10.20;10.20;;;;;;;;5056913;28;8887;-78
2021/08/23 10:47:14;;;;;;;;;11.00;8.40;;;;;;;;5045069;28;8955;-77
2021/08/23 10:49:43;;;;;;;;;10.80;10.80;;;;;;;;5052613;28;8860;-77
2021/08/23 10:52:11;;;;;;;;;10.00;10.00;;;;;;;;5058292;28;8854;-78
2021/08/23 10:54:42;;;;;;;;;9.80;9.80;;;;;;;;5046749;28;8870;-75
2021/08/23 10:57:10;;;;;;;;;12.80;12.80;;;;;;;;5050670;28;8977;-78
2021/08/23 10:59:43;;;;;;;;;14.40;14.40;;;;;;;;5054976;28;9687;-78
2021/08/23 11:02:12;;;;;;;;;13.20;13.20;;;;;;;;5057280;28;8823;-80
2021/08/23 11:04:42;;;;;;;;;14.20;14.20;;;;;;;;5061542;28;8852;-79
2021/08/23 11:07:11;;;;;;;;;14.60;13.20;;;;;;;;5061751;28;8883;-80
2021/08/23 11:09:42;;;;;;;;;14.80;14.80;;;;;;;;5054388;28;9759;-80
2021/08/23 11:12:17;;;;;;;;;15.80;15.80;;;;;;;;5062776;28;9002;-81
2021/08/23 11:14:51;;;;;;;;;14.20;14.20;;;;;;;;5054563;28;8866;-82
2021/08/23 11:17:32;;;;;;;;;15.00;15.00;;;;;;;;5052384;28;8855;-79
2021/08/23 11:20:02;;;;;;;;;16.20;16.20;;;;;;;;5052140;28;8876;-80
2021/08/23 11:22:30;;;;;;;;;15.20;15.20;;;;;;;;5059677;28;8960;-80
2021/08/23 11:24:59;;;;;;;;;16.00;16.00;;;;;;;;5058316;28;8881;-80
2021/08/23 11:27:26;;;;;;;;;18.20;16.80;;;;;;;;5055713;28;8881;-79
2021/08/23 11:29:55;;;;;;;;;19.40;17.60;;;;;;;;5053888;28;8852;-79
2021/08/23 11:32:27;;;;;;;;;19.00;19.00;;;;;;;;5061017;28;8905;-79
2021/08/23 11:34:55;;;;;;;;;17.20;17.20;;;;;;;;5052755;28;8852;-79
2021/08/23 11:37:25;;;;;;;;;22.20;17.00;;;;;;;;5061636;28;8887;-78
2021/08/23 11:40:07;;;;;;;;;19.60;19.60;;;;;;;;5036818;28;8871;-83
2021/08/23 11:42:34;;;;;;;;;19.00;18.00;;;;;;;;5056913;28;8868;-79
2021/08/23 11:45:01;;;;;;;;;15.20;15.20;;;;;;;;5054839;28;10099;-78
2021/08/23 11:47:33;;;;;;;;;16.80;16.40;;;;;;;;5060236;28;8872;-78
2021/08/23 11:50:01;;;;;;;;;19.00;18.80;;;;;;;;5064670;28;8907;-79
2021/08/23 11:52:28;;;;;;;;;20.20;18.60;;;;;;;;5066321;28;8880;-78
2021/08/23 11:54:56;;;;;;;;;21.20;18.60;;;;;;;;5067135;28;9667;-78
2021/08/23 11:57:27;;;;;;;;;23.20;22.20;;;;;;;;5066008;28;8864;-79
2021/08/23 11:59:59;;;;;;;;;20.40;18.00;;;;;;;;5067280;28;8944;-77
2021/08/23 12:02:29;;;;;;;;;23.20;19.60;;;;;;;;5066714;28;8793;-79
2021/08/23 12:05:10;;;;;;;;;20.40;19.00;;;;;;;;5065998;28;8941;-79
2021/08/23 12:07:44;;;;;;;;;18.80;18.80;;;;;;;;5064846;28;8878;-79
2021/08/23 12:10:25;;;;;;;;;18.40;18.20;;;;;;;;5065785;28;8898;-79
2021/08/23 12:13:05;;;;;;;;;15.40;14.60;;;;;;;;5067226;28;9717;-79
2021/08/23 12:15:33;;;;;;;;;19.00;18.40;;;;;;;;5066438;28;8848;-78
2021/08/23 12:18:10;;;;;;;;;20.40;18.80;;;;;;;;5066137;28;8852;-78
2021/08/23 12:20:37;;;;;;;;;21.80;20.80;;;;;;;;5066745;28;8919;-79
2021/08/23 12:23:05;;;;;;;;;21.40;18.40;;;;;;;;5065746;28;8884;-78
2021/08/23 12:25:32;;;;;;;;;23.40;20.40;;;;;;;;5065668;28;8864;-80
2021/08/23 12:28:01;;;;;;;;;21.40;21.40;;;;;;;;5065730;28;8886;-79
2021/08/23 12:30:30;;;;;;;;;25.80;23.80;;;;;;;;5065844;28;8914;-79
2021/08/23 12:32:57;;;;;;;;;19.20;17.60;;;;;;;;5066418;28;8883;-79
2021/08/23 12:35:29;;;;;;;;;20.20;18.20;;;;;;;;5065325;28;8886;-78
2021/08/23 12:37:56;;;;;;;;;21.80;20.40;;;;;;;;5066528;28;8851;-78
2021/08/23 12:40:23;;;;;;;;;21.20;21.20;;;;;;;;5051643;28;8868;-78
2021/08/23 12:42:56;;;;;;;;;21.00;19.00;;;;;;;;5060190;28;9645;-78
2021/08/23 12:45:25;;;;;;;;;19.20;19.20;;;;;;;;5063826;28;8860;-79
2021/08/23 12:47:52;;;;;;;;;17.20;17.20;;;;;;;;5066718;28;8964;-77
2021/08/23 12:50:21;;;;;;;;;22.20;21.00;;;;;;;;5065879;28;8982;-78
2021/08/23 12:52:48;;;;;;;;;22.40;20.60;;;;;;;;5064053;28;9541;-79
2021/08/23 12:55:15;;;;;;;;;21.60;21.40;;;;;;;;5066371;28;8852;-77
2021/08/23 12:57:43;;;;;;;;;21.40;21.40;;;;;;;;5064124;28;8918;-78
2021/08/23 13:00:12;;;;;;;;;19.60;19.60;;;;;;;;5065437;28;8956;-78
2021/08/23 13:02:42;;;;;;;;;26.20;23.60;;;;;;;;5064247;28;8988;-78
2021/08/23 13:05:11;;;;;;;;;24.80;23.20;;;;;;;;5064881;28;8867;-79
2021/08/23 13:07:38;;;;;;;;;26.00;22.20;;;;;;;;5065792;28;8858;-78
2021/08/23 13:10:07;;;;;;;;;21.60;21.60;;;;;;;;5065097;28;8892;-77
2021/08/23 13:12:35;;;;;;;;;22.80;22.80;;;;;;;;5065389;28;8861;-79
2021/08/23 13:15:02;;;;;;;;;23.60;22.80;;;;;;;;5063688;28;9642;-78
2021/08/23 13:17:30;;;;;;;;;24.60;23.20;;;;;;;;5065919;28;8888;-79
2021/08/23 13:19:58;;;;;;;;;22.40;22.40;;;;;;;;5063812;28;8884;-76
2021/08/23 13:22:26;;;;;;;;;16.40;16.40;;;;;;;;5064517;28;8872;-77
2021/08/23 13:24:53;;;;;;;;;26.80;25.40;;;;;;;;5064701;28;9652;-76
2021/08/23 13:27:20;;;;;;;;;23.80;23.80;;;;;;;;5064474;28;8865;-77
2021/08/23 13:29:48;;;;;;;;;20.00;19.40;;;;;;;;5065689;28;8886;-79
2021/08/23 13:32:15;;;;;;;;;20.80;19.80;;;;;;;;5062978;28;8827;-79
2021/08/23 13:34:42;;;;;;;;;18.80;18.20;;;;;;;;5065290;28;8852;-77
2021/08/23 13:37:11;;;;;;;;;21.40;21.40;;;;;;;;5063940;28;8898;-77
2021/08/23 13:39:38;;;;;;;;;22.00;20.40;;;;;;;;5065586;28;8979;-78
2021/08/23 13:42:06;;;;;;;;;21.20;20.60;;;;;;;;5064627;28;9421;-77
2021/08/23 13:44:33;;;;;;;;;22.20;22.20;;;;;;;;5061155;28;8961;-78
2021/08/23 13:47:01;;;;;;;;;22.40;21.20;;;;;;;;5064360;28;8844;-80
2021/08/23 13:49:28;;;;;;;;;21.80;21.80;;;;;;;;5063104;28;8856;-79
2021/08/23 13:51:55;;;;;;;;;24.60;24.00;;;;;;;;5064882;28;8902;-79
2021/08/23 13:54:24;;;;;;;;;25.80;24.80;;;;;;;;5063565;28;8876;-79
2021/08/23 13:56:52;;;;;;;;;19.80;19.80;;;;;;;;5064885;28;8871;-79
2021/08/23 13:59:19;;;;;;;;;17.60;17.60;;;;;;;;5064436;28;8900;-79
2021/08/23 14:01:46;;;;;;;;;19.80;19.00;;;;;;;;5063792;28;8882;-79
2021/08/23 14:04:13;;;;;;;;;19.40;17.00;;;;;;;;5063557;28;8844;-78
2021/08/23 14:06:41;;;;;;;;;18.60;18.60;;;;;;;;5062628;28;8840;-80
2021/08/23 14:09:08;;;;;;;;;17.80;17.80;;;;;;;;5067418;28;8888;-78
2021/08/23 14:11:37;;;;;;;;;19.80;17.00;;;;;;;;5065143;28;8868;-77
2021/08/23 14:14:04;;;;;;;;;19.20;18.00;;;;;;;;5064185;28;9022;-79
2021/08/23 14:16:32;;;;;;;;;14.00;14.00;;;;;;;;5063589;28;8879;-79
2021/08/23 14:18:59;;;;;;;;;11.00;11.00;;;;;;;;5064289;28;8937;-79
2021/08/23 14:21:27;;;;;;;;;17.80;14.80;;;;;;;;5064278;28;8877;-78
2021/08/23 14:23:54;;;;;;;;;18.00;15.80;;;;;;;;5054310;28;8868;-79
2021/08/23 14:26:22;;;;;;;;;15.20;13.80;;;;;;;;5063971;28;8849;-79
2021/08/23 14:28:51;;;;;;;;;15.80;15.80;;;;;;;;5063518;28;8886;-79
2021/08/23 14:31:18;;;;;;;;;17.20;17.00;;;;;;;;5063750;28;8790;-78
2021/08/23 14:33:45;;;;;;;;;16.40;15.20;;;;;;;;5056407;28;8851;-77
2021/08/23 14:36:13;;;;;;;;;12.80;12.80;;;;;;;;5057192;28;8872;-78
2021/08/23 14:38:40;;;;;;;;;17.20;15.40;;;;;;;;5063618;28;9703;-78
2021/08/23 14:41:07;;;;;;;;;13.40;13.40;;;;;;;;5062642;28;8868;-78
2021/08/23 14:43:35;;;;;;;;;13.00;13.00;;;;;;;;5064048;28;8856;-79
2021/08/23 14:46:04;;;;;;;;;14.80;13.60;;;;;;;;5062425;28;8888;-79